Time;durP1;ratioP1;P1;durP2;ratioP2;P2;SDS_P1;SDS_P2;PMS_P1;PMS_P2;Temp;Humidity;BMP_temperature;BMP_pressure;BME280_temperature;BME280_humidity;BME280_pressure;Samples;Min_cycle;Max_cycle;Signal;HPM_P1;HPM_P2
2022/01/26 00:06:40;;;;;;;;;;;;;;;9.00;93.12;103223.25;4927032;29;19926;-51
2022/01/26 00:09:06;;;;;;;;;;;;;;;8.97;91.28;103215.47;4927456;29;19953;-56
2022/01/26 00:11:32;;;;;;;;;;;;;;;9.14;89.50;103218.59;4926396;29;20376;-55
2022/01/26 00:13:58;;;;;;;;;;;;;;;9.09;89.79;103207.44;4928107;29;19914;-55
2022/01/26 00:18:51;;;;;;;;;;;;;;;9.12;89.00;103207.19;4926501;29;19919;-57
2022/01/26 00:21:27;;;;;;;;;;;;;;;9.15;88.92;103206.94;4926735;29;19977;-52
2022/01/26 00:26:58;;;;;;;;;;;;;;;9.32;87.33;103200.19;4925898;29;20009;-53
2022/01/26 00:29:18;;;;;;;;;;;;;;;9.31;88.12;103203.81;4926799;29;19944;-56
2022/01/26 00:33:06;;;;;;;;;;;;;;;9.36;88.38;103212.31;4927389;29;19991;-53
2022/01/26 00:40:35;;;;;;;;;;;;;;;9.17;90.14;103210.31;4927917;29;19919;-52
2022/01/26 00:43:25;;;;;;;;;;;;;;;9.24;89.58;103222.22;4925858;29;19923;-54
2022/01/26 00:45:49;;;;;;;;;;;;;;;9.33;88.82;103218.75;4926183;29;19927;-56
2022/01/26 00:48:20;;;;;;;;;;;;;;;9.39;89.32;103208.53;4927641;29;19919;-53
2022/01/26 00:50:50;;;;;;;;;;;;;;;9.30;89.62;103204.81;4924813;29;19930;-56
2022/01/26 00:53:16;;;;;;;;;;;;;;;9.16;90.43;103203.28;4936343;29;19918;-57
2022/01/26 00:55:41;;;;;;;;;;;;;;;9.29;90.31;103198.63;4937482;29;20487;-57
2022/01/26 00:58:06;;;;;;;;;;;;;;;9.22;90.85;103194.75;4937130;29;19922;-56
2022/01/26 01:00:32;;;;;;;;;;;;;;;8.74;93.55;103190.69;4937491;29;20291;-56
2022/01/26 01:02:58;;;;;;;;;;;;;;;8.82;93.83;103188.25;4935894;29;20376;-55
2022/01/26 01:05:28;;;;;;;;;;;;;;;8.84;94.62;103188.13;4935913;29;20018;-51
2022/01/26 01:08:02;;;;;;;;;;;;;;;9.08;90.84;103181.72;4935856;29;19933;-55
2022/01/26 01:10:27;;;;;;;;;;;;;;;9.18;89.13;103172.81;4936354;29;19926;-55
2022/01/26 01:12:57;;;;;;;;;;;;;;;9.28;88.82;103180.06;4936981;29;19923;-55
2022/01/26 01:15:24;;;;;;;;;;;;;;;9.08;90.05;103171.88;4936331;29;19923;-52
2022/01/26 01:17:53;;;;;;;;;;;;;;;9.17;90.49;103167.59;4934323;29;19926;-57
2022/01/26 01:28:52;;;;;;;;;;;;;;;8.91;93.78;103159.13;4917823;29;19930;-56
2022/01/26 01:31:27;;;;;;;;;;;;;;;8.99;93.01;103167.31;4917941;29;20372;-57
2022/01/26 01:33:52;;;;;;;;;;;;;;;9.00;93.44;103175.22;4916537;29;19942;-56
2022/01/26 01:36:20;;;;;;;;;;;;;;;9.04;93.74;103168.66;4916170;29;20376;-56
2022/01/26 01:38:46;;;;;;;;;;;;;;;9.23;91.37;103161.78;4917430;29;19923;-54
2022/01/26 01:41:11;;;;;;;;;;;;;;;9.19;91.94;103154.97;4927262;29;20287;-54
2022/01/26 01:43:37;;;;;;;;;;;;;;;9.06;93.49;103151.66;4935438;29;19977;-55
2022/01/26 01:46:03;;;;;;;;;;;;;;;9.20;91.66;103150.50;4935259;29;20232;-52
2022/01/26 01:48:31;;;;;;;;;;;;;;;9.17;92.16;103144.44;4935461;29;19919;-61
2022/01/26 01:50:59;;;;;;;;;;;;;;;9.25;91.81;103143.78;4937412;29;19918;-62
2022/01/26 01:53:33;;;;;;;;;;;;;;;9.27;91.30;103144.50;4936117;29;19942;-61
2022/01/26 01:56:00;;;;;;;;;;;;;;;8.97;93.67;103138.09;4937556;29;19918;-60
2022/01/26 01:58:25;;;;;;;;;;;;;;;9.20;92.57;103145.16;4937196;29;19922;-61
2022/01/26 02:00:51;;;;;;;;;;;;;;;8.87;93.89;103138.00;4936817;29;19923;-61
2022/01/26 02:03:16;;;;;;;;;;;;;;;9.13;94.17;103143.00;4937169;29;19981;-61
2022/01/26 02:05:42;;;;;;;;;;;;;;;9.28;92.28;103137.31;4936926;29;19918;-61
2022/01/26 02:08:08;;;;;;;;;;;;;;;9.26;92.20;103132.13;4936658;29;20379;-60
2022/01/26 02:10:35;;;;;;;;;;;;;;;9.11;94.03;103133.41;4935700;29;19930;-61
2022/01/26 02:13:04;;;;;;;;;;;;;;;8.98;95.97;103129.09;4935477;29;19930;-61
2022/01/26 02:15:44;;;;;;;;;;;;;;;9.10;93.44;103121.06;4936667;29;20431;-62
2022/01/26 02:51:44;;;;;;;;;;;;;;;8.57;97.95;103085.38;4940463;29;19918;-61
2022/01/26 02:56:18;;;;;;;;;;;;;;;8.85;95.49;103083.09;4939244;29;20390;-62
2022/01/26 03:06:33;;;;;;;;;;;;;;;8.96;95.90;103083.00;4940572;29;20343;-60
2022/01/26 03:09:06;;;;;;;;;;;;;;;8.83;96.77;103082.38;4939370;29;19923;-62
2022/01/26 03:11:34;;;;;;;;;;;;;;;9.01;95.70;103090.63;4939749;29;19922;-62
2022/01/26 03:14:10;;;;;;;;;;;;;;;8.77;97.92;103090.91;4940304;29;20395;-61
2022/01/26 03:16:42;;;;;;;;;;;;;;;8.99;97.17;103082.75;4940361;29;20006;-62
2022/01/26 03:30:08;;;;;;;;;;;;;;;8.63;100.00;103063.53;4938900;29;19927;-61
2022/01/26 03:33:08;;;;;;;;;;;;;;;8.72;100.00;103052.09;4939913;29;19970;-61
2022/01/26 03:35:48;;;;;;;;;;;;;;;8.59;100.00;103043.44;4939961;29;19934;-61
2022/01/26 03:38:20;;;;;;;;;;;;;;;8.41;100.00;103045.75;4940071;29;19922;-61
2022/01/26 03:40:48;;;;;;;;;;;;;;;8.57;100.00;103042.72;4939951;29;19918;-61
2022/01/26 03:43:13;;;;;;;;;;;;;;;8.53;100.00;103044.78;4939312;29;19922;-61
2022/01/26 03:45:38;;;;;;;;;;;;;;;8.88;100.00;103037.47;4938441;29;20356;-61
2022/01/26 03:48:04;;;;;;;;;;;;;;;8.41;100.00;103030.59;4938506;29;19919;-61
2022/01/26 03:50:29;;;;;;;;;;;;;;;8.38;100.00;103038.88;4939709;29;19919;-61
2022/01/26 03:52:55;;;;;;;;;;;;;;;8.43;100.00;103039.31;4939362;29;20284;-61
2022/01/26 03:55:20;;;;;;;;;;;;;;;8.51;100.00;103035.19;4939498;29;20001;-60
2022/01/26 03:57:45;;;;;;;;;;;;;;;8.34;100.00;103034.75;4939021;29;20298;-61
2022/01/26 04:00:12;;;;;;;;;;;;;;;8.47;100.00;103050.59;4938122;29;19929;-60
2022/01/26 04:02:40;;;;;;;;;;;;;;;8.44;100.00;103045.53;4939053;29;19990;-61
2022/01/26 04:05:09;;;;;;;;;;;;;;;8.55;100.00;103037.50;4939688;29;19919;-60
2022/01/26 04:07:35;;;;;;;;;;;;;;;8.33;100.00;103033.06;4937948;29;19930;-62
2022/01/26 04:10:18;;;;;;;;;;;;;;;8.22;100.00;103031.28;4938946;29;19918;-61
2022/01/26 04:12:43;;;;;;;;;;;;;;;8.74;100.00;103047.47;4939292;29;19933;-61
2022/01/26 04:15:20;;;;;;;;;;;;;;;8.68;100.00;103052.50;4939007;29;19997;-61
2022/01/26 04:17:45;;;;;;;;;;;;;;;8.74;100.00;103055.47;4939857;29;19922;-61
2022/01/26 04:20:12;;;;;;;;;;;;;;;8.67;100.00;103061.47;4921983;29;20331;-61
2022/01/26 04:22:49;;;;;;;;;;;;;;;8.26;100.00;103070.06;4938870;29;19922;-61
2022/01/26 04:25:20;;;;;;;;;;;;;;;8.44;100.00;103082.84;4938677;29;19929;-61
2022/01/26 04:27:48;;;;;;;;;;;;;;;8.80;100.00;103086.13;4938908;29;19926;-62
2022/01/26 04:30:14;;;;;;;;;;;;;;;8.92;100.00;103110.09;4938713;29;20009;-62
2022/01/26 04:32:39;;;;;;;;;;;;;;;8.77;100.00;103109.56;4938405;29;19959;-61
2022/01/26 04:35:06;;;;;;;;;;;;;;;8.16;100.00;103104.59;4938547;29;20256;-61
2022/01/26 04:37:47;;;;;;;;;;;;;;;8.09;100.00;103092.75;4937428;29;19922;-62
2022/01/26 04:40:15;;;;;;;;;;;;;;;8.25;100.00;103097.69;4938317;29;19919;-62
2022/01/26 04:42:50;;;;;;;;;;;;;;;8.33;100.00;103102.41;4938482;29;19925;-61
2022/01/26 04:45:16;;;;;;;;;;;;;;;8.37;100.00;103092.31;4938481;29;20264;-61
2022/01/26 04:47:41;;;;;;;;;;;;;;;8.14;100.00;103079.03;4938043;29;20005;-61
2022/01/26 04:50:09;;;;;;;;;;;;;;;7.95;100.00;103067.19;4938407;29;19918;-62
2022/01/26 04:52:34;;;;;;;;;;;;;;;8.07;100.00;103070.66;4936611;29;19923;-62
2022/01/26 04:54:59;;;;;;;;;;;;;;;8.46;100.00;103081.75;4938828;29;19919;-62
2022/01/26 04:57:25;;;;;;;;;;;;;;;8.45;100.00;103080.03;4938537;29;19919;-61
2022/01/26 04:59:50;;;;;;;;;;;;;;;8.44;100.00;103062.34;4937978;29;20347;-61
2022/01/26 05:02:16;;;;;;;;;;;;;;;7.85;100.00;103056.44;4937818;29;19919;-61
2022/01/26 05:04:41;;;;;;;;;;;;;;;8.02;100.00;103062.22;4937672;29;19925;-60
2022/01/26 05:07:06;;;;;;;;;;;;;;;8.45;100.00;103048.03;4937801;29;20007;-61
2022/01/26 05:09:32;;;;;;;;;;;;;;;7.66;100.00;103038.38;4937157;29;20275;-62
2022/01/26 05:11:58;;;;;;;;;;;;;;;7.67;100.00;103036.59;4937344;29;20310;-62
2022/01/26 05:14:24;;;;;;;;;;;;;;;7.80;100.00;103039.94;4937784;29;20013;-62
2022/01/26 05:16:49;;;;;;;;;;;;;;;8.16;100.00;103048.63;4937775;29;20375;-61
2022/01/26 05:19:15;;;;;;;;;;;;;;;7.79;100.00;103046.25;4937414;29;19919;-62
2022/01/26 05:21:43;;;;;;;;;;;;;;;7.97;100.00;103062.59;4936316;29;19926;-61
2022/01/26 05:24:12;;;;;;;;;;;;;;;7.55;100.00;103049.06;4937462;29;19915;-62
2022/01/26 05:26:38;;;;;;;;;;;;;;;7.40;100.00;103046.63;4937449;29;19969;-62
2022/01/26 05:29:04;;;;;;;;;;;;;;;7.47;100.00;103042.50;4936505;29;19942;-61
2022/01/26 05:31:29;;;;;;;;;;;;;;;7.86;100.00;103049.28;4937113;29;19919;-62
2022/01/26 05:33:54;;;;;;;;;;;;;;;7.40;100.00;103037.81;4937432;29;20320;-62
2022/01/26 05:36:20;;;;;;;;;;;;;;;7.56;100.00;103027.63;4938398;29;19957;-60
2022/01/26 05:38:45;;;;;;;;;;;;;;;7.35;100.00;103022.19;4938487;29;19934;-62
2022/01/26 05:41:11;;;;;;;;;;;;;;;7.53;100.00;103027.88;4937117;29;19915;-60
2022/01/26 05:43:36;;;;;;;;;;;;;;;7.60;100.00;103021.06;4936167;29;19974;-61
2022/01/26 05:46:07;;;;;;;;;;;;;;;7.66;100.00;103026.91;4936995;29;19922;-61
2022/01/26 05:48:34;;;;;;;;;;;;;;;7.65;100.00;103022.56;4920512;29;20005;-60
2022/01/26 05:51:08;;;;;;;;;;;;;;;7.59;100.00;103019.38;4936069;29;19972;-61
2022/01/26 05:53:34;;;;;;;;;;;;;;;7.78;100.00;103017.91;4937310;29;19918;-62
2022/01/26 05:55:59;;;;;;;;;;;;;;;7.80;100.00;103015.16;4935926;29;20046;-61
2022/01/26 05:58:25;;;;;;;;;;;;;;;7.56;100.00;103024.94;4937531;29;20356;-60
2022/01/26 06:00:50;;;;;;;;;;;;;;;7.62;100.00;103028.13;4937163;29;20383;-61
2022/01/26 06:03:16;;;;;;;;;;;;;;;7.54;100.00;103016.25;4937086;29;19918;-61
2022/01/26 06:05:41;;;;;;;;;;;;;;;7.71;100.00;103022.06;4936757;29;19914;-61
2022/01/26 06:08:07;;;;;;;;;;;;;;;7.79;100.00;103022.28;4936984;29;19952;-62
2022/01/26 06:10:32;;;;;;;;;;;;;;;7.44;100.00;103009.97;4935799;29;19957;-61
2022/01/26 06:12:58;;;;;;;;;;;;;;;7.58;100.00;103017.69;4937342;29;20315;-60
2022/01/26 06:15:23;;;;;;;;;;;;;;;7.79;100.00;103032.09;4936949;29;19919;-61
2022/01/26 06:17:48;;;;;;;;;;;;;;;7.72;100.00;103018.41;4937188;29;20285;-61
2022/01/26 06:20:14;;;;;;;;;;;;;;;7.39;100.00;103028.94;4938968;29;20010;-61
2022/01/26 06:22:39;;;;;;;;;;;;;;;7.70;100.00;103031.84;4937704;29;20326;-61
2022/01/26 06:25:07;;;;;;;;;;;;;;;7.62;100.00;103042.28;4936518;29;20276;-60
2022/01/26 06:27:33;;;;;;;;;;;;;;;7.49;100.00;103047.72;4937743;29;19923;-61
2022/01/26 06:29:58;;;;;;;;;;;;;;;7.51;100.00;103032.47;4936649;29;19919;-62
2022/01/26 06:32:24;;;;;;;;;;;;;;;7.28;100.00;103035.13;4935599;29;19926;-60
2022/01/26 06:34:49;;;;;;;;;;;;;;;7.38;100.00;103037.03;4937459;29;19927;-62
2022/01/26 06:37:15;;;;;;;;;;;;;;;7.19;100.00;103035.84;4936450;29;19919;-62
2022/01/26 06:39:40;;;;;;;;;;;;;;;7.28;100.00;103016.47;4936466;29;20018;-61
2022/01/26 06:42:12;;;;;;;;;;;;;;;7.08;100.00;103023.38;4936383;29;19970;-60
2022/01/26 06:44:47;;;;;;;;;;;;;;;7.19;100.00;103014.56;4936961;29;19929;-62
2022/01/26 06:49:38;;;;;;;;;;;;;;;7.23;100.00;103013.34;4936541;29;19918;-60
2022/01/26 06:52:04;;;;;;;;;;;;;;;7.31;100.00;103016.25;4936531;29;19922;-61
2022/01/26 06:54:29;;;;;;;;;;;;;;;7.08;100.00;103011.84;4936538;29;20287;-62
2022/01/26 06:56:55;;;;;;;;;;;;;;;7.44;100.00;103012.63;4936613;29;19954;-61
2022/01/26 06:59:23;;;;;;;;;;;;;;;7.87;100.00;103021.66;4936530;29;19919;-61
2022/01/26 07:01:48;;;;;;;;;;;;;;;7.32;100.00;103022.44;4936660;29;19919;-62
2022/01/26 07:04:14;;;;;;;;;;;;;;;7.10;100.00;103015.25;4935190;29;20017;-61
2022/01/26 07:06:39;;;;;;;;;;;;;;;7.19;100.00;103025.19;4935105;29;19922;-61
2022/01/26 07:09:04;;;;;;;;;;;;;;;7.17;100.00;103057.25;4936642;29;19925;-60
2022/01/26 07:11:30;;;;;;;;;;;;;;;7.56;100.00;103051.59;4935031;29;20391;-61
2022/01/26 07:13:58;;;;;;;;;;;;;;;7.45;100.00;103043.59;4936619;29;19921;-62
2022/01/26 07:21:51;;;;;;;;;;;;;;;7.32;100.00;103033.91;4936642;29;19974;-62
2022/01/26 07:24:17;;;;;;;;;;;;;;;7.38;100.00;103029.06;4935050;29;20351;-61
2022/01/26 07:26:43;;;;;;;;;;;;;;;7.34;100.00;103035.59;4934690;29;19923;-60
2022/01/26 07:29:13;;;;;;;;;;;;;;;7.25;100.00;103032.69;4934999;29;20018;-60
2022/01/26 07:31:42;;;;;;;;;;;;;;;7.25;100.00;103037.16;4935222;29;19977;-61
2022/01/26 07:34:12;;;;;;;;;;;;;;;7.26;100.00;103038.84;4934806;29;20061;-60
2022/01/26 07:36:38;;;;;;;;;;;;;;;7.12;100.00;103042.59;4938910;29;19969;-62
2022/01/26 07:39:08;;;;;;;;;;;;;;;7.36;100.00;103054.97;4939412;29;20025;-61
2022/01/26 07:41:34;;;;;;;;;;;;;;;7.03;100.00;103066.28;4939892;29;19933;-62
2022/01/26 07:44:00;;;;;;;;;;;;;;;7.16;100.00;103062.69;4938486;29;19914;-62
2022/01/26 07:46:27;;;;;;;;;;;;;;;7.35;100.00;103056.78;4939955;29;19925;-65
2022/01/26 07:48:52;;;;;;;;;;;;;;;7.26;100.00;103071.66;4939094;29;19922;-61
2022/01/26 07:51:18;;;;;;;;;;;;;;;7.28;100.00;103063.56;4937803;29;19918;-62
2022/01/26 07:53:44;;;;;;;;;;;;;;;7.71;100.00;103051.34;4938399;29;19973;-62
2022/01/26 07:56:10;;;;;;;;;;;;;;;7.58;100.00;103064.78;4939020;29;19919;-63
2022/01/26 07:58:35;;;;;;;;;;;;;;;8.07;100.00;103075.16;4939248;29;19915;-61
2022/01/26 08:01:01;;;;;;;;;;;;;;;8.25;100.00;103083.50;4939357;29;19925;-61
2022/01/26 08:03:32;;;;;;;;;;;;;;;8.50;100.00;103076.19;4938651;29;19919;-61
2022/01/26 08:05:58;;;;;;;;;;;;;;;7.78;100.00;103076.53;4938878;29;19918;-62
2022/01/26 08:08:23;;;;;;;;;;;;;;;7.86;100.00;103068.78;4938331;29;20364;-61
2022/01/26 08:10:50;;;;;;;;;;;;;;;7.68;100.00;103067.56;4939125;29;19970;-62
2022/01/26 08:13:15;;;;;;;;;;;;;;;7.88;100.00;103050.84;4938454;29;19926;-61
2022/01/26 08:15:41;;;;;;;;;;;;;;;8.03;100.00;103063.91;4937709;29;19922;-61
2022/01/26 08:18:06;;;;;;;;;;;;;;;8.06;100.00;103066.31;4937763;29;20017;-61
2022/01/26 08:20:32;;;;;;;;;;;;;;;7.57;100.00;103042.63;4938438;29;19918;-62
2022/01/26 08:22:57;;;;;;;;;;;;;;;7.72;100.00;103053.88;4938764;29;19914;-62
2022/01/26 08:25:23;;;;;;;;;;;;;;;7.89;100.00;103063.22;4938785;29;19970;-62
2022/01/26 08:27:55;;;;;;;;;;;;;;;8.50;100.00;103070.84;4938006;29;19992;-60
2022/01/26 08:30:21;;;;;;;;;;;;;;;8.22;100.00;103067.75;4938811;29;19922;-60
2022/01/26 08:32:46;;;;;;;;;;;;;;;7.95;100.00;103071.69;4937541;29;20427;-61
2022/01/26 08:35:12;;;;;;;;;;;;;;;8.30;100.00;103076.81;4937504;29;20387;-62
2022/01/26 08:37:38;;;;;;;;;;;;;;;8.47;100.00;103077.25;4939383;29;19981;-66
2022/01/26 08:40:04;;;;;;;;;;;;;;;8.02;100.00;103079.06;4941381;29;20002;-61
2022/01/26 08:42:29;;;;;;;;;;;;;;;7.69;100.00;103077.25;4939355;29;19946;-61
2022/01/26 08:44:55;;;;;;;;;;;;;;;7.91;100.00;103072.91;4938421;29;20309;-61
2022/01/26 08:47:21;;;;;;;;;;;;;;;7.88;100.00;103063.31;4937609;29;19915;-61
2022/01/26 08:49:47;;;;;;;;;;;;;;;8.14;100.00;103060.38;4936858;29;19925;-61
2022/01/26 08:52:12;;;;;;;;;;;;;;;8.37;100.00;103061.16;4936945;29;19919;-61
2022/01/26 08:54:37;;;;;;;;;;;;;;;8.54;100.00;103065.13;4938043;29;19930;-61
2022/01/26 08:57:03;;;;;;;;;;;;;;;8.79;100.00;103059.59;4938506;29;19919;-61
2022/01/26 08:59:28;;;;;;;;;;;;;;;8.45;100.00;103068.53;4937590;29;19930;-61
2022/01/26 09:01:54;;;;;;;;;;;;;;;8.64;100.00;103078.56;4937904;29;20347;-62
2022/01/26 09:04:19;;;;;;;;;;;;;;;8.14;100.00;103077.22;4936377;29;20291;-62
2022/01/26 09:06:53;;;;;;;;;;;;;;;7.86;100.00;103065.25;4937748;29;19915;-62
2022/01/26 09:09:20;;;;;;;;;;;;;;;8.67;100.00;103078.31;4936947;29;19929;-61
2022/01/26 09:11:47;;;;;;;;;;;;;;;8.45;100.00;103084.53;4937880;29;19941;-63
2022/01/26 09:14:17;;;;;;;;;;;;;;;8.79;100.00;103081.78;4938083;29;19918;-63
2022/01/26 09:16:43;;;;;;;;;;;;;;;8.60;100.00;103080.63;4936413;29;19929;-62
2022/01/26 09:19:20;;;;;;;;;;;;;;;8.72;100.00;103085.94;4937566;29;19919;-62
2022/01/26 09:21:46;;;;;;;;;;;;;;;8.24;100.00;103071.13;4937992;29;19923;-61
2022/01/26 09:24:11;;;;;;;;;;;;;;;8.48;100.00;103084.28;4938134;29;19962;-62
2022/01/26 09:26:37;;;;;;;;;;;;;;;9.06;100.00;103071.56;4937906;29;19919;-62
2022/01/26 09:29:02;;;;;;;;;;;;;;;8.98;100.00;103067.72;4937733;29;19971;-62
2022/01/26 09:31:27;;;;;;;;;;;;;;;9.03;100.00;103068.19;4937892;29;20471;-62
2022/01/26 09:33:53;;;;;;;;;;;;;;;8.96;100.00;103055.50;4937047;29;19918;-62
2022/01/26 09:36:18;;;;;;;;;;;;;;;8.54;100.00;103051.81;4937301;29;20005;-62
2022/01/26 09:38:43;;;;;;;;;;;;;;;8.55;100.00;103048.16;4937566;29;19946;-62
2022/01/26 09:41:09;;;;;;;;;;;;;;;8.72;100.00;103038.75;4937279;29;19918;-62
2022/01/26 09:43:35;;;;;;;;;;;;;;;8.65;100.00;103058.91;4936668;29;19970;-61
2022/01/26 09:46:00;;;;;;;;;;;;;;;9.08;100.00;103059.78;4936881;29;19914;-62
2022/01/26 09:48:25;;;;;;;;;;;;;;;8.66;100.00;103049.09;4937469;29;20001;-61
2022/01/26 09:50:55;;;;;;;;;;;;;;;9.18;100.00;103055.34;4936274;29;20419;-62
2022/01/26 09:53:26;;;;;;;;;;;;;;;9.31;100.00;103049.81;4936386;29;19923;-62
2022/01/26 09:55:52;;;;;;;;;;;;;;;9.01;100.00;103059.47;4936012;29;19965;-62
2022/01/26 09:58:20;;;;;;;;;;;;;;;8.95;100.00;103053.81;4935189;29;19915;-62
2022/01/26 10:00:45;;;;;;;;;;;;;;;8.95;100.00;103065.31;4936080;29;19922;-61
2022/01/26 10:03:10;;;;;;;;;;;;;;;9.15;100.00;103049.44;4936625;29;20430;-61
2022/01/26 10:05:44;;;;;;;;;;;;;;;8.86;100.00;103063.44;4935492;29;19982;-61
2022/01/26 10:16:04;;;;;;;;;;;;;;;8.47;100.00;103045.25;4938269;29;19919;-61
2022/01/26 10:18:33;;;;;;;;;;;;;;;8.83;100.00;103055.69;4939021;29;19918;-61
2022/01/26 10:20:59;;;;;;;;;;;;;;;8.46;100.00;103071.06;4936844;29;19934;-61
2022/01/26 10:23:25;;;;;;;;;;;;;;;8.57;100.00;103090.72;4937772;29;20371;-62
2022/01/26 10:26:03;;;;;;;;;;;;;;;8.88;100.00;103114.84;4937940;29;19929;-62
2022/01/26 10:28:47;;;;;;;;;;;;;;;9.32;100.00;103122.72;4936833;29;19926;-62
2022/01/26 10:31:19;;;;;;;;;;;;;;;9.11;100.00;103118.25;4936373;29;19925;-62
2022/01/26 10:33:57;;;;;;;;;;;;;;;9.25;100.00;103103.75;4935853;29;19953;-62
2022/01/26 10:36:23;;;;;;;;;;;;;;;9.15;100.00;103094.81;4936509;29;19919;-62
2022/01/26 10:39:01;;;;;;;;;;;;;;;9.04;100.00;103106.41;4935281;29;19915;-63
2022/01/26 10:41:26;;;;;;;;;;;;;;;9.06;100.00;103109.78;4935754;29;19919;-62
2022/01/26 10:43:56;;;;;;;;;;;;;;;9.30;100.00;103101.53;4937318;29;19978;-62
2022/01/26 10:46:30;;;;;;;;;;;;;;;8.90;100.00;103088.88;4936251;29;19919;-61
2022/01/26 10:56:51;;;;;;;;;;;;;;;9.31;100.00;103081.00;4936445;29;19918;-61
2022/01/26 10:59:17;;;;;;;;;;;;;;;9.16;100.00;103077.81;4934944;29;19938;-61
2022/01/26 11:01:42;;;;;;;;;;;;;;;9.27;100.00;103064.41;4935167;29;20105;-61
2022/01/26 11:04:08;;;;;;;;;;;;;;;9.50;100.00;103066.06;4935124;29;19967;-62
2022/01/26 11:06:35;;;;;;;;;;;;;;;9.89;100.00;103079.56;4935903;29;19919;-62
2022/01/26 11:09:07;;;;;;;;;;;;;;;9.18;100.00;103086.53;4935144;29;20364;-61
2022/01/26 11:11:33;;;;;;;;;;;;;;;9.28;100.00;103060.75;4939783;29;19919;-61
2022/01/26 11:13:58;;;;;;;;;;;;;;;9.45;100.00;103053.94;4922804;29;20352;-61
2022/01/26 11:16:24;;;;;;;;;;;;;;;9.27;100.00;103064.41;4939429;29;19927;-63
2022/01/26 11:18:51;;;;;;;;;;;;;;;8.99;100.00;103060.56;4939265;29;19919;-61
2022/01/26 11:21:26;;;;;;;;;;;;;;;9.42;100.00;103056.88;4939117;29;19918;-62
2022/01/26 11:24:03;;;;;;;;;;;;;;;9.35;100.00;103052.22;4938662;29;20359;-61
2022/01/26 11:26:29;;;;;;;;;;;;;;;9.76;100.00;103053.09;4939834;29;20311;-62
2022/01/26 11:28:54;;;;;;;;;;;;;;;9.59;100.00;103050.06;4939378;29;19970;-61
2022/01/26 11:31:19;;;;;;;;;;;;;;;9.13;100.00;103030.03;4938328;29;20368;-62
2022/01/26 11:33:48;;;;;;;;;;;;;;;9.38;100.00;103041.25;4906686;29;19984;-62
2022/01/26 11:36:16;;;;;;;;;;;;;;;9.59;100.00;103038.56;4939565;29;20423;-62
2022/01/26 11:46:57;;;;;;;;;;;;;;;9.41;100.00;103024.97;4938983;29;20380;-62
2022/01/26 11:49:26;;;;;;;;;;;;;;;9.55;100.00;103019.25;4939071;29;19914;-62
2022/01/26 11:51:55;;;;;;;;;;;;;;;9.59;100.00;103014.50;4939576;29;19919;-61
2022/01/26 11:54:22;;;;;;;;;;;;;;;9.28;100.00;103026.03;4937859;29;19944;-63
2022/01/26 11:57:01;;;;;;;;;;;;;;;9.41;100.00;103028.50;4939200;29;19919;-62
2022/01/26 11:59:30;;;;;;;;;;;;;;;8.86;100.00;103036.75;4937914;29;19918;-61
2022/01/26 12:02:00;;;;;;;;;;;;;;;8.93;100.00;103037.91;4939222;29;20346;-60
2022/01/26 12:04:26;;;;;;;;;;;;;;;9.28;100.00;103034.06;4938845;29;19925;-61
2022/01/26 12:06:58;;;;;;;;;;;;;;;9.36;100.00;103022.72;4938653;29;19918;-62
2022/01/26 12:09:24;;;;;;;;;;;;;;;9.48;100.00;103028.81;4937140;29;20025;-60
2022/01/26 12:11:54;;;;;;;;;;;;;;;9.33;100.00;103039.84;4938543;29;20013;-62
2022/01/26 12:14:21;;;;;;;;;;;;;;;9.12;100.00;103033.69;4938510;29;20005;-61
2022/01/26 12:16:49;;;;;;;;;;;;;;;9.39;100.00;103038.47;4937781;29;19938;-62
2022/01/26 12:35:27;;;;;;;;;;;;;;;9.28;100.00;103018.03;4936834;29;19919;-61
2022/01/26 12:38:01;;;;;;;;;;;;;;;9.63;100.00;103010.56;4938697;29;19919;-61
2022/01/26 12:43:12;;;;;;;;;;;;;;;8.99;100.00;103010.69;4938733;29;20015;-61
2022/01/26 12:45:38;;;;;;;;;;;;;;;9.08;100.00;103014.41;4936799;29;20375;-62
2022/01/26 12:48:06;;;;;;;;;;;;;;;9.45;100.00;103021.03;4938395;29;20293;-61
2022/01/26 12:50:32;;;;;;;;;;;;;;;9.08;100.00;103009.06;4938371;29;19921;-62
2022/01/26 12:52:57;;;;;;;;;;;;;;;9.35;100.00;102998.78;4937128;29;20371;-62
2022/01/26 12:55:24;;;;;;;;;;;;;;;9.52;100.00;102994.63;4937039;29;19919;-62
2022/01/26 12:57:49;;;;;;;;;;;;;;;9.54;100.00;102992.69;4937950;29;19923;-61
2022/01/26 13:00:16;;;;;;;;;;;;;;;9.82;100.00;102987.56;4938091;29;20409;-61
2022/01/26 13:02:41;;;;;;;;;;;;;;;9.81;100.00;102996.56;4938221;29;19922;-62
2022/01/26 13:05:07;;;;;;;;;;;;;;;9.60;100.00;102995.66;4936856;29;19918;-61
2022/01/26 13:07:32;;;;;;;;;;;;;;;9.56;100.00;102993.38;4937238;29;19919;-62
2022/01/26 13:09:57;;;;;;;;;;;;;;;9.60;100.00;102992.16;4938314;29;19962;-61
2022/01/26 13:12:30;;;;;;;;;;;;;;;9.74;100.00;102978.38;4921598;29;20352;-62
2022/01/26 13:15:11;;;;;;;;;;;;;;;9.79;100.00;102983.34;4936852;29;20001;-62
2022/01/26 13:17:43;;;;;;;;;;;;;;;9.93;100.00;102983.94;4937165;29;19918;-62
2022/01/26 13:26:13;;;;;;;;;;;;;;;10.09;100.00;102978.88;4859789;29;19923;-61
2022/01/26 13:37:12;;;;;;;;;;;;;;;10.22;100.00;102969.75;4937261;29;19926;-61
2022/01/26 13:39:16;;;;;;;;;;;;;;;10.69;100.00;102966.34;4927104;29;19922;-62
2022/01/26 13:59:44;;;;;;;;;;;;;;;10.05;100.00;102961.41;4935738;29;19919;-61
2022/01/26 14:02:03;;;;;;;;;;;;;;;9.55;100.00;102962.31;4934570;29;19923;-61
2022/01/26 14:04:28;;;;;;;;;;;;;;;9.65;100.00;102960.53;4935589;29;20271;-60
2022/01/26 14:06:54;;;;;;;;;;;;;;;9.75;100.00;102948.00;4935135;29;20346;-61
2022/01/26 14:09:19;;;;;;;;;;;;;;;9.83;100.00;102963.38;4936476;29;19919;-62
2022/01/26 14:11:47;;;;;;;;;;;;;;;9.31;100.00;102967.03;4936587;29;19919;-63
2022/01/26 14:14:20;;;;;;;;;;;;;;;9.60;100.00;102947.56;4920111;29;20025;-62
2022/01/26 14:16:55;;;;;;;;;;;;;;;9.91;100.00;102954.66;4938207;29;20016;-60
2022/01/26 14:23:03;;;;;;;;;;;;;;;9.81;100.00;102959.16;4937555;29;19927;-61
2022/01/26 14:27:43;;;;;;;;;;;;;;;10.29;100.00;102950.31;4936613;29;19927;-61
2022/01/26 14:30:24;;;;;;;;;;;;;;;10.07;100.00;102948.75;4936662;29;19919;-62
2022/01/26 14:35:43;;;;;;;;;;;;;;;9.88;100.00;102949.59;4937391;29;19919;-61
2022/01/26 14:54:28;;;;;;;;;;;;;;;9.94;100.00;102942.84;4940501;29;19914;-63
2022/01/26 15:35:23;;;;;;;;;;;;;;;9.47;100.00;102925.63;4940076;29;19919;-61
2022/01/26 15:43:34;;;;;;;;;;;;;;;9.55;100.00;102915.09;4939825;29;19966;-61
2022/01/26 15:49:22;;;;;;;;;;;;;;;9.44;100.00;102907.16;4939449;29;19929;-60
2022/01/26 15:51:53;;;;;;;;;;;;;;;9.42;100.00;102918.00;4937576;29;19930;-61
2022/01/26 15:57:54;;;;;;;;;;;;;;;9.18;100.00;102900.50;4896639;29;19926;-61
2022/01/26 16:21:07;;;;;;;;;;;;;;;8.85;100.00;102918.47;4938853;29;19923;-62
2022/01/26 16:37:44;;;;;;;;;;;;;;;9.04;100.00;102908.88;4932626;29;19919;-60
2022/01/26 17:02:29;;;;;;;;;;;;;;;9.36;100.00;102921.22;4938225;29;20340;-61
2022/01/26 17:02:34;;;;;;;;;;;;;;;9.24;100.00;102915.16;4860665;29;19920;-62
2022/01/26 17:24:28;;;;;;;;;;;;;;;9.49;100.00;102896.94;4938132;29;20013;-61
2022/01/26 18:07:22;;;;;;;;;;;;;;;9.35;100.00;102870.63;4937354;29;19925;-61
2022/01/26 18:17:58;;;;;;;;;;;;;;;8.97;100.00;102876.53;4938290;29;20003;-62
2022/01/26 18:26:13;;;;;;;;;;;;;;;8.68;100.00;102866.59;4936619;29;20032;-62
2022/01/26 18:50:32;;;;;;;;;;;;;;;8.95;100.00;102862.50;4936482;29;19923;-62
2022/01/26 18:52:57;;;;;;;;;;;;;;;9.00;100.00;102857.63;4936207;29;19925;-61
2022/01/26 18:55:23;;;;;;;;;;;;;;;8.98;100.00;102853.38;4936530;29;19923;-61
2022/01/26 18:57:48;;;;;;;;;;;;;;;8.54;100.00;102859.78;4936671;29;19919;-61
2022/01/26 19:00:14;;;;;;;;;;;;;;;8.62;100.00;102853.78;4937043;29;19919;-61
2022/01/26 19:02:39;;;;;;;;;;;;;;;8.81;100.00;102854.88;4936461;29;19930;-61
2022/01/26 19:05:05;;;;;;;;;;;;;;;8.88;100.00;102856.00;4936221;29;20021;-62
2022/01/26 19:07:31;;;;;;;;;;;;;;;8.75;100.00;102846.41;4934908;29;19919;-61
2022/01/26 19:09:57;;;;;;;;;;;;;;;8.49;100.00;102855.78;4936268;29;20348;-62